Time;durP1;ratioP1;P1;durP2;ratioP2;P2;SDS_P1;SDS_P2;PMS_P1;PMS_P2;Temp;Humidity;BMP_temperature;BMP_pressure;BME280_temperature;BME280_humidity;BME280_pressure;Samples;Min_cycle;Max_cycle;Signal;HPM_P1;HPM_P2
2022/09/11 00:01:15;;;;;;;4.27;3.70;;;;;;;12.64;100.00;97015.72;5010460;28;20251;-71
2022/09/11 00:03:44;;;;;;;7.17;5.00;;;;;;;12.63;100.00;97012.22;5011120;28;20208;-70
2022/09/11 00:06:14;;;;;;;4.73;3.30;;;;;;;12.60;100.00;96996.69;4963302;28;20235;-71
2022/09/11 00:08:59;;;;;;;3.60;3.30;;;;;;;12.59;100.00;97011.84;5007091;28;20204;-71
2022/09/11 00:11:28;;;;;;;4.40;3.90;;;;;;;12.60;100.00;97004.66;5013163;28;20785;-69
2022/09/11 00:13:57;;;;;;;3.50;3.30;;;;;;;12.56;100.00;97009.56;4990604;28;20389;-68
2022/09/11 00:16:27;;;;;;;5.70;3.77;;;;;;;12.63;100.00;97009.56;5011187;28;20216;-72
2022/09/11 00:18:57;;;;;;;3.57;2.90;;;;;;;12.71;100.00;97005.91;5012958;28;20297;-70
2022/09/11 00:21:26;;;;;;;4.23;3.20;;;;;;;12.61;100.00;96993.00;4964307;28;20208;-70
2022/09/11 00:23:55;;;;;;;5.47;3.47;;;;;;;12.72;100.00;96999.59;5012863;28;20416;-70
2022/09/11 00:26:24;;;;;;;3.17;2.93;;;;;;;12.50;100.00;96967.03;5013601;28;20207;-72
2022/09/11 00:28:54;;;;;;;4.80;3.40;;;;;;;12.67;100.00;96994.84;4992104;28;21011;-69
2022/09/11 00:31:23;;;;;;;4.53;4.03;;;;;;;12.69;100.00;96998.16;5012719;28;20766;-69
2022/09/11 00:33:52;;;;;;;4.03;3.73;;;;;;;12.43;100.00;96962.53;5012524;28;20436;-72
2022/09/11 00:36:21;;;;;;;3.57;3.37;;;;;;;12.58;100.00;96986.28;4966877;28;20220;-71
2022/09/11 00:38:49;;;;;;;4.23;3.17;;;;;;;12.63;100.00;96990.16;5005997;28;20212;-70
2022/09/11 00:41:23;;;;;;;3.40;3.20;;;;;;;12.67;100.00;96991.41;5012630;28;20205;-70
2022/09/11 00:44:35;;;;;;;3.30;3.07;;;;;;;12.58;100.00;96991.59;4998354;28;20205;-71
2022/09/11 00:47:08;;;;;;;3.90;3.20;;;;;;;12.63;100.00;96990.16;5004046;28;20213;-72
2022/09/11 00:49:38;;;;;;;2.97;2.63;;;;;;;12.64;100.00;96989.94;5011286;28;20226;-69
2022/09/11 00:52:10;;;;;;;3.30;3.07;;;;;;;12.59;100.00;96993.22;4960429;28;20232;-72
2022/09/11 00:54:43;;;;;;;3.67;3.33;;;;;;;12.58;100.00;96988.09;5000712;28;20684;-68
2022/09/11 00:57:12;;;;;;;3.53;3.23;;;;;;;12.59;100.00;96987.09;5012574;28;20204;-70
2022/09/11 00:59:42;;;;;;;3.07;2.87;;;;;;;12.36;100.00;96958.22;4984592;28;20239;-70
2022/09/11 01:02:13;;;;;;;3.43;3.13;;;;;;;12.61;100.00;96984.25;5009189;28;20236;-69
2022/09/11 01:04:41;;;;;;;3.13;2.93;;;;;;;12.58;100.00;96983.63;5010351;28;20307;-70
2022/09/11 01:07:10;;;;;;;3.43;3.23;;;;;;;12.66;100.00;96987.91;5012787;28;20295;-70
2022/09/11 01:09:38;;;;;;;3.30;3.00;;;;;;;12.58;100.00;96974.81;4949299;28;21200;-68
2022/09/11 01:12:12;;;;;;;4.70;3.93;;;;;;;12.63;100.00;96985.66;5007778;28;20220;-69
2022/09/11 01:14:45;;;;;;;4.53;3.10;;;;;;;12.69;100.00;96970.75;5002577;28;20675;-68
2022/09/11 01:17:21;;;;;;;3.53;3.30;;;;;;;12.66;100.00;96981.78;4993034;28;20212;-67
2022/09/11 01:20:19;;;;;;;4.70;3.80;;;;;;;12.53;100.00;96975.44;5010163;28;20647;-68
2022/09/11 01:23:14;;;;;;;3.40;3.20;;;;;;;12.51;100.00;96976.66;5010887;28;20730;-69
2022/09/11 01:25:58;;;;;;;3.50;3.20;;;;;;;12.58;100.00;96980.13;4953962;28;20460;-66
2022/09/11 01:28:32;;;;;;;3.60;3.40;;;;;;;12.53;100.00;96977.25;5010547;28;20210;-70
2022/09/11 01:31:05;;;;;;;3.80;3.47;;;;;;;12.54;100.00;96979.72;5011227;28;20538;-70
2022/09/11 01:33:40;;;;;;;3.50;3.30;;;;;;;12.55;100.00;96980.53;4992995;28;20587;-67
2022/09/11 01:36:10;;;;;;;3.00;2.80;;;;;;;12.48;100.00;96977.06;5012980;28;20916;-69
2022/09/11 01:38:45;;;;;;;4.17;3.30;;;;;;;12.52;100.00;96980.94;5008807;28;20204;-69
2022/09/11 01:41:17;;;;;;;3.77;3.40;;;;;;;12.56;100.00;96984.81;4935391;28;20453;-71
2022/09/11 01:43:51;;;;;;;3.53;3.20;;;;;;;12.54;100.00;96981.56;5011104;28;20759;-69
2022/09/11 01:46:22;;;;;;;5.23;3.40;;;;;;;12.49;100.00;96984.00;4997759;28;20492;-68
2022/09/11 01:48:54;;;;;;;6.10;3.50;;;;;;;12.53;100.00;96982.56;4992256;28;20204;-73
2022/09/11 01:51:26;;;;;;;4.27;3.10;;;;;;;12.49;100.00;96976.03;4988662;28;20208;-69
2022/09/11 01:53:54;;;;;;;6.33;3.80;;;;;;;12.50;100.00;96978.50;5009502;28;20806;-68
2022/09/11 01:56:28;;;;;;;3.27;3.07;;;;;;;12.37;100.00;96965.16;4958554;28;20333;-70
2022/09/11 01:58:59;;;;;;;3.07;2.87;;;;;;;12.39;100.00;96971.94;5008229;28;20200;-70
2022/09/11 02:01:31;;;;;;;3.60;3.13;;;;;;;12.42;100.00;96965.38;5011672;28;20461;-70
2022/09/11 02:04:06;;;;;;;3.90;3.60;;;;;;;12.49;100.00;96976.84;4991177;28;20218;-71
2022/09/11 02:06:38;;;;;;;3.30;3.10;;;;;;;12.48;100.00;96979.72;4989773;28;20443;-68
2022/09/11 02:09:09;;;;;;;5.17;3.13;;;;;;;12.46;100.00;96971.94;5006652;28;20837;-68
2022/09/11 02:11:40;;;;;;;3.80;3.50;;;;;;;12.38;100.00;96948.22;4962316;28;20591;-69
2022/09/11 02:14:15;;;;;;;3.73;3.27;;;;;;;12.48;100.00;96971.72;5008483;28;20304;-70
2022/09/11 02:16:50;;;;;;;10.73;3.50;;;;;;;12.46;100.00;96971.94;5013386;28;20314;-69
2022/09/11 02:19:19;;;;;;;4.37;3.40;;;;;;;12.44;100.00;96961.50;4994938;28;20893;-70
2022/09/11 02:21:47;;;;;;;3.63;3.37;;;;;;;12.43;100.00;96965.19;4986613;28;20690;-68
2022/09/11 02:24:16;;;;;;;4.10;3.50;;;;;;;12.41;100.00;96958.44;5008842;28;20413;-69
2022/09/11 02:26:48;;;;;;;3.33;3.17;;;;;;;12.43;100.00;96965.19;4964338;28;20216;-70
2022/09/11 02:29:18;;;;;;;3.77;3.47;;;;;;;12.41;100.00;96958.44;5008367;28;20337;-68
2022/09/11 02:31:46;;;;;;;3.60;3.30;;;;;;;12.42;100.00;96960.91;5011983;28;20246;-70
2022/09/11 02:34:16;;;;;;;3.40;3.17;;;;;;;12.39;100.00;96956.00;4991631;28;20311;-68
2022/09/11 02:36:57;;;;;;;4.07;3.20;;;;;;;12.44;100.00;96958.03;4986736;28;20339;-69
2022/09/11 02:39:35;;;;;;;3.50;3.30;;;;;;;12.41;100.00;96964.56;5014205;28;20602;-69
2022/09/11 02:42:22;;;;;;;3.30;3.10;;;;;;;12.41;100.00;96958.44;4958460;28;20259;-67
2022/09/11 02:44:55;;;;;;;4.97;3.50;;;;;;;12.42;100.00;96958.25;5009818;28;20204;-69
2022/09/11 02:47:34;;;;;;;3.50;3.20;;;;;;;12.40;100.00;96962.09;5008748;28;20207;-68
2022/09/11 02:50:08;;;;;;;3.63;3.17;;;;;;;12.42;100.00;96960.06;4992492;28;20586;-69
2022/09/11 02:52:46;;;;;;;3.37;2.60;;;;;;;12.36;100.00;96953.75;4988252;28;20223;-70
2022/09/11 02:55:19;;;;;;;3.73;3.00;;;;;;;12.38;100.00;96957.00;5012026;28;20211;-70
2022/09/11 02:57:54;;;;;;;2.80;2.60;;;;;;;12.47;100.00;96954.97;5003774;28;20208;-72
2022/09/11 03:00:23;;;;;;;3.10;2.70;;;;;;;12.29;100.00;96936.94;4992564;28;20746;-70
2022/09/11 03:02:53;;;;;;;3.43;3.10;;;;;;;12.46;100.00;96953.31;5009042;28;20363;-69
2022/09/11 03:05:22;;;;;;;2.90;2.80;;;;;;;12.48;100.00;96956.59;4992775;28;20737;-70
2022/09/11 03:07:50;;;;;;;3.70;3.40;;;;;;;12.42;100.00;96942.31;5007334;28;20658;-71
2022/09/11 03:10:19;;;;;;;3.67;3.00;;;;;;;12.41;100.00;96956.59;4994835;28;20453;-70
2022/09/11 03:12:47;;;;;;;2.97;2.80;;;;;;;12.52;100.00;96946.41;5011830;28;20319;-70
2022/09/11 03:15:16;;;;;;;3.60;3.30;;;;;;;12.50;100.00;96948.44;4959272;28;20441;-71
2022/09/11 03:17:45;;;;;;;3.23;2.93;;;;;;;12.41;100.00;96951.28;5009132;28;20210;-71
2022/09/11 03:20:14;;;;;;;4.03;2.93;;;;;;;12.41;100.00;96947.78;4996044;28;20431;-72
2022/09/11 03:22:42;;;;;;;3.10;2.90;;;;;;;12.48;100.00;96948.63;5010406;28;20224;-70
2022/09/11 03:25:11;;;;;;;3.30;3.10;;;;;;;12.48;100.00;96945.97;4987815;28;20520;-69
2022/09/11 03:27:40;;;;;;;3.53;3.23;;;;;;;12.48;100.00;96947.81;5010604;28;20568;-70
2022/09/11 03:30:10;;;;;;;5.03;3.20;;;;;;;12.44;100.00;96942.91;4957415;28;20460;-70
2022/09/11 03:32:38;;;;;;;3.23;3.03;;;;;;;12.43;100.00;96945.75;5008286;28;20654;-71
2022/09/11 03:35:08;;;;;;;3.43;3.13;;;;;;;12.45;100.00;96936.56;4987577;28;20385;-68
2022/09/11 03:37:37;;;;;;;3.23;2.93;;;;;;;12.58;100.00;96942.91;5010068;28;20211;-69
2022/09/11 03:40:06;;;;;;;3.87;3.57;;;;;;;12.54;100.00;96939.03;4983739;28;20303;-69
2022/09/11 03:42:34;;;;;;;3.73;2.90;;;;;;;12.48;100.00;96942.50;5013052;28;20396;-67
2022/09/11 03:45:03;;;;;;;3.30;3.10;;;;;;;12.29;100.00;96902.41;4958818;28;20214;-71
2022/09/11 03:47:32;;;;;;;3.30;2.83;;;;;;;12.43;100.00;96929.81;4950170;28;21739;-71
2022/09/11 03:50:00;;;;;;;3.67;3.37;;;;;;;12.36;100.00;96937.78;4988896;28;20586;-70
2022/09/11 03:52:30;;;;;;;3.40;2.70;;;;;;;12.36;100.00;96934.31;5013201;28;20222;-70
2022/09/11 03:54:59;;;;;;;3.23;3.03;;;;;;;12.38;100.00;96933.09;4992333;28;20220;-70
2022/09/11 03:57:27;;;;;;;3.33;2.80;;;;;;;12.37;100.00;96934.13;5012841;28;20208;-71
2022/09/11 03:59:55;;;;;;;3.50;3.20;;;;;;;12.33;100.00;96934.72;5015651;28;20236;-71
2022/09/11 04:02:24;;;;;;;3.33;3.10;;;;;;;12.38;100.00;96940.22;4960545;28;20761;-70
2022/09/11 04:04:52;;;;;;;3.10;2.90;;;;;;;12.33;100.00;96934.72;5013804;28;20230;-69
2022/09/11 04:07:21;;;;;;;2.70;2.60;;;;;;;12.36;100.00;96937.78;5009847;28;20315;-70
2022/09/11 04:09:51;;;;;;;3.70;3.40;;;;;;;12.37;100.00;96941.25;4993961;28;20223;-70
2022/09/11 04:12:19;;;;;;;6.53;3.47;;;;;;;12.13;100.00;96896.47;4979961;28;20224;-69
2022/09/11 04:14:49;;;;;;;3.53;3.33;;;;;;;12.33;100.00;96938.19;5011016;28;21088;-69
2022/09/11 04:17:17;;;;;;;4.57;4.20;;;;;;;12.30;100.00;96939.41;5015556;28;20210;-72
2022/09/11 04:19:46;;;;;;;3.63;3.43;;;;;;;12.33;100.00;96934.72;4960447;28;20408;-69
2022/09/11 04:22:14;;;;;;;3.80;3.60;;;;;;;12.32;100.00;96941.03;5015939;28;20634;-72
2022/09/11 04:24:42;;;;;;;4.17;3.77;;;;;;;12.09;100.00;96897.88;4998882;28;20235;-70
2022/09/11 04:27:12;;;;;;;6.47;3.93;;;;;;;12.31;100.00;96929.59;5007052;28;20200;-69
2022/09/11 04:29:41;;;;;;;4.23;3.37;;;;;;;12.42;100.00;96929.00;5010513;28;20672;-72
2022/09/11 04:32:10;;;;;;;4.40;3.97;;;;;;;12.43;100.00;96925.34;5013910;28;20216;-68
2022/09/11 04:34:38;;;;;;;3.60;3.33;;;;;;;12.37;100.00;96931.47;4960061;28;20219;-73
2022/09/11 04:37:07;;;;;;;4.53;4.23;;;;;;;12.35;100.00;96928.19;5010382;28;20291;-71
2022/09/11 04:39:35;;;;;;;3.50;3.30;;;;;;;12.18;100.00;96900.34;5008772;28;20208;-71
2022/09/11 04:42:04;;;;;;;3.97;3.50;;;;;;;12.35;100.00;96930.84;4996412;28;20603;-72
2022/09/11 04:44:34;;;;;;;4.00;3.57;;;;;;;12.31;100.00;96929.59;5012168;28;20211;-72
2022/09/11 04:47:02;;;;;;;3.77;3.47;;;;;;;12.27;100.00;96925.69;5011396;28;20711;-69
2022/09/11 04:49:31;;;;;;;4.03;3.63;;;;;;;12.32;100.00;96936.56;4964713;28;20731;-72
2022/09/11 04:52:04;;;;;;;7.70;3.90;;;;;;;12.32;100.00;96928.59;5006962;28;20315;-69
2022/09/11 04:54:35;;;;;;;3.40;3.13;;;;;;;12.33;100.00;96932.06;5010520;28;20220;-72
2022/09/11 04:57:04;;;;;;;7.80;3.97;;;;;;;12.35;100.00;96937.97;4984140;28;20611;-69
2022/09/11 04:59:34;;;;;;;3.63;3.33;;;;;;;12.29;100.00;96929.81;5013929;28;20297;-69
2022/09/11 05:02:03;;;;;;;3.80;3.50;;;;;;;12.39;100.00;96932.06;4988200;28;20234;-70
2022/09/11 05:04:31;;;;;;;3.43;3.23;;;;;;;12.38;100.00;96927.78;4964533;28;20216;-70
2022/09/11 05:07:00;;;;;;;3.60;3.00;;;;;;;12.41;100.00;96935.34;5009478;28;20217;-74
2022/09/11 05:09:29;;;;;;;3.80;3.60;;;;;;;12.46;100.00;96929.41;5010570;28;21035;-73
2022/09/11 05:11:57;;;;;;;5.00;3.07;;;;;;;12.50;100.00;96927.19;4993351;28;20235;-72
2022/09/11 05:14:27;;;;;;;5.43;3.30;;;;;;;12.48;100.00;96938.00;5009841;28;20235;-70
2022/09/11 05:16:56;;;;;;;4.30;3.33;;;;;;;12.44;100.00;96932.28;5009011;28;20613;-72
2022/09/11 05:19:25;;;;;;;4.63;3.43;;;;;;;12.41;100.00;96939.81;4946545;28;20670;-71
2022/09/11 05:21:53;;;;;;;3.63;3.43;;;;;;;12.48;100.00;96934.53;4981857;28;20228;-69
2022/09/11 05:24:21;;;;;;;6.93;4.40;;;;;;;12.40;100.00;96924.91;4988526;28;20226;-69
2022/09/11 05:26:49;;;;;;;3.80;3.43;;;;;;;12.39;100.00;96950.66;4987453;28;20668;-67
2022/09/11 05:29:18;;;;;;;4.20;4.00;;;;;;;12.42;100.00;96939.66;5005907;28;20235;-67
2022/09/11 05:31:46;;;;;;;3.10;3.00;;;;;;;12.49;100.00;96946.81;4963229;28;20239;-70
2022/09/11 05:34:16;;;;;;;3.43;3.20;;;;;;;12.50;100.00;96943.97;4986758;28;20739;-68
2022/09/11 05:36:44;;;;;;;3.97;3.33;;;;;;;12.30;100.00;96919.97;4955120;28;20215;-68
2022/09/11 05:39:12;;;;;;;3.63;3.33;;;;;;;12.42;100.00;96950.28;4988054;28;20264;-69
2022/09/11 05:41:41;;;;;;;3.50;3.30;;;;;;;12.58;100.00;96953.56;4985048;28;20450;-70
2022/09/11 05:44:09;;;;;;;3.50;3.30;;;;;;;12.37;100.00;96926.16;5005974;28;20498;-67
2022/09/11 05:46:37;;;;;;;3.17;2.97;;;;;;;12.53;100.00;96966.63;4991490;28;20215;-68
2022/09/11 05:49:06;;;;;;;2.57;2.47;;;;;;;12.54;100.00;96961.13;4988952;28;20967;-68
2022/09/11 05:51:36;;;;;;;2.80;2.70;;;;;;;12.55;100.00;96960.09;4954689;28;20228;-72
2022/09/11 05:54:04;;;;;;;2.83;2.73;;;;;;;12.53;100.00;96950.69;5000732;28;20219;-69
2022/09/11 05:56:33;;;;;;;2.70;2.60;;;;;;;12.47;100.00;96965.59;4947012;28;20208;-69
2022/09/11 05:59:01;;;;;;;2.70;2.60;;;;;;;12.44;100.00;96948.22;4993296;28;20230;-71
2022/09/11 06:01:29;;;;;;;3.40;3.20;;;;;;;12.51;100.00;96971.34;4988336;28;20228;-70
2022/09/11 06:03:58;;;;;;;2.97;2.77;;;;;;;12.53;100.00;96974.59;4995815;28;20230;-71
2022/09/11 06:06:26;;;;;;;3.10;3.00;;;;;;;12.50;100.00;96978.50;4986170;28;20363;-70
2022/09/11 06:08:55;;;;;;;7.37;6.80;;;;;;;12.49;100.00;96979.50;5008930;28;20200;-69
2022/09/11 06:11:24;;;;;;;3.93;3.73;;;;;;;12.52;100.00;96983.59;4964728;28;20326;-70
2022/09/11 06:13:52;;;;;;;2.67;2.57;;;;;;;12.53;100.00;96983.41;5008747;28;20204;-68
2022/09/11 06:16:21;;;;;;;2.47;2.37;;;;;;;12.40;100.00;96986.84;4977322;28;20208;-72
2022/09/11 06:18:50;;;;;;;2.37;2.27;;;;;;;12.26;100.00;96969.22;4965734;28;20853;-68
2022/09/11 06:21:19;;;;;;;2.20;2.10;;;;;;;12.54;100.00;97002.81;5005330;28;20223;-67
2022/09/11 06:23:48;;;;;;;2.20;2.10;;;;;;;12.41;100.00;97004.44;4966407;28;20231;-68
2022/09/11 06:26:20;;;;;;;2.20;2.10;;;;;;;12.48;100.00;97015.06;5003067;28;20227;-67
2022/09/11 06:28:49;;;;;;;2.00;1.90;;;;;;;12.53;100.00;97014.47;4963916;28;20220;-67
2022/09/11 06:31:20;;;;;;;2.23;2.13;;;;;;;12.53;100.00;97009.16;5005896;28;20631;-68
2022/09/11 06:33:49;;;;;;;2.30;2.20;;;;;;;12.57;100.00;97016.53;4989769;28;20216;-68
2022/09/11 06:36:19;;;;;;;3.77;2.60;;;;;;;12.69;100.00;97019.44;5008611;28;20204;-72
2022/09/11 06:38:52;;;;;;;2.60;2.40;;;;;;;12.76;100.00;97019.41;4967204;28;20445;-66
2022/09/11 06:41:23;;;;;;;6.20;5.70;;;;;;;12.90;100.00;97022.13;5007895;28;20208;-66
2022/09/11 06:43:52;;;;;;;5.23;4.83;;;;;;;13.14;100.00;97016.19;4954383;28;20244;-69
2022/09/11 06:46:22;;;;;;;3.00;2.80;;;;;;;13.44;100.00;97018.47;5002853;28;20224;-66
2022/09/11 06:48:50;;;;;;;3.20;3.10;;;;;;;13.95;100.00;97020.63;4992470;28;20205;-71
2022/09/11 06:51:20;;;;;;;2.57;2.47;;;;;;;14.30;100.00;97017.63;4981929;28;20297;-71
2022/09/11 06:53:48;;;;;;;2.30;2.20;;;;;;;14.48;100.00;97017.72;4991636;28;20501;-66
2022/09/11 06:56:17;;;;;;;1.90;1.80;;;;;;;14.47;100.00;97024.09;5010603;28;20895;-71
2022/09/11 06:58:47;;;;;;;1.57;1.57;;;;;;;14.35;100.00;97028.47;4959958;28;20446;-72
2022/09/11 07:01:16;;;;;;;1.77;1.67;;;;;;;14.22;100.00;97023.19;5006773;28;20739;-69
2022/09/11 07:03:46;;;;;;;1.70;1.60;;;;;;;14.10;100.00;97033.69;4986215;28;20224;-67
2022/09/11 07:06:15;;;;;;;1.37;1.37;;;;;;;14.03;100.00;97025.72;4983423;28;20213;-67
2022/09/11 07:08:43;;;;;;;2.40;2.30;;;;;;;14.19;100.00;97024.44;4965869;28;20787;-63
2022/09/11 07:11:11;;;;;;;2.37;2.27;;;;;;;14.29;100.00;97026.66;5008687;28;20209;-69
2022/09/11 07:13:40;;;;;;;1.90;1.90;;;;;;;14.23;100.00;97030.97;4968482;28;21285;-70
2022/09/11 07:16:12;;;;;;;2.37;2.27;;;;;;;14.18;100.00;97026.25;4986898;28;20647;-69
2022/09/11 07:18:41;;;;;;;2.00;1.90;;;;;;;14.28;100.00;97033.00;5010018;28;20195;-69
2022/09/11 07:21:11;;;;;;;2.10;2.10;;;;;;;14.33;100.00;97022.53;4981285;28;20212;-70
2022/09/11 07:23:40;;;;;;;2.07;1.97;;;;;;;14.36;100.00;97035.44;4982287;28;20818;-67
2022/09/11 07:26:10;;;;;;;2.40;2.30;;;;;;;14.21;100.00;97050.88;4991037;28;20296;-68
2022/09/11 07:28:39;;;;;;;2.50;2.30;;;;;;;14.24;100.00;97053.13;5010610;28;20347;-68
2022/09/11 07:31:11;;;;;;;3.20;2.50;;;;;;;14.23;100.00;97056.81;4959416;28;20238;-67
2022/09/11 07:33:46;;;;;;;2.80;2.70;;;;;;;14.17;100.00;97056.59;4967421;28;20211;-68
2022/09/11 07:36:17;;;;;;;2.83;2.43;;;;;;;13.98;100.00;97060.16;4985010;28;20212;-69
2022/09/11 07:38:46;;;;;;;2.60;2.50;;;;;;;14.03;100.00;97063.00;4989564;28;20208;-67
2022/09/11 07:41:16;;;;;;;2.40;2.30;;;;;;;14.01;100.00;97065.06;4991996;28;20402;-68
2022/09/11 07:43:45;;;;;;;2.50;2.40;;;;;;;14.00;100.00;97066.88;5008499;28;20634;-69
2022/09/11 07:46:15;;;;;;;2.70;2.60;;;;;;;14.11;100.00;97073.44;4949218;28;20691;-68
2022/09/11 07:48:43;;;;;;;3.23;2.93;;;;;;;14.27;100.00;97077.47;4983985;28;20216;-67
2022/09/11 07:51:13;;;;;;;2.70;2.60;;;;;;;14.42;100.00;97082.56;4993076;28;20711;-67
2022/09/11 07:53:43;;;;;;;2.80;2.70;;;;;;;14.53;100.00;97066.91;4976888;28;20758;-66
2022/09/11 07:56:13;;;;;;;2.67;2.50;;;;;;;14.93;100.00;97082.75;4985994;28;20209;-67
2022/09/11 07:58:42;;;;;;;2.83;2.73;;;;;;;14.96;100.00;97081.50;5009276;28;20204;-65
2022/09/11 08:01:12;;;;;;;2.90;2.80;;;;;;;15.04;100.00;97091.91;4978077;28;20208;-65
2022/09/11 08:03:42;;;;;;;2.73;2.47;;;;;;;14.94;100.00;97087.03;4946027;28;20326;-68
2022/09/11 08:06:13;;;;;;;2.50;2.40;;;;;;;15.11;100.00;97090.00;4995811;28;20219;-65
2022/09/11 08:08:47;;;;;;;2.80;2.70;;;;;;;14.98;100.00;97093.63;4990898;28;20212;-64
2022/09/11 08:11:17;;;;;;;2.90;2.70;;;;;;;14.87;100.00;97100.44;4998702;28;20318;-68
2022/09/11 08:13:49;;;;;;;4.73;2.67;;;;;;;14.85;100.00;97073.16;4971137;28;20208;-69
2022/09/11 08:16:18;;;;;;;2.17;2.07;;;;;;;14.89;100.00;97101.03;5007927;28;20204;-70
2022/09/11 08:18:48;;;;;;;1.70;1.70;;;;;;;14.99;100.00;97105.91;4942568;28;20300;-69
2022/09/11 08:21:16;;;;;;;2.70;2.60;;;;;;;15.10;100.00;97111.59;4970921;28;20208;-71
2022/09/11 08:23:46;;;;;;;2.00;1.90;;;;;;;15.22;100.00;97112.53;4997670;28;20235;-69
2022/09/11 08:26:16;;;;;;;3.30;2.73;;;;;;;15.39;100.00;97106.69;4998774;28;20216;-68
2022/09/11 08:28:46;;;;;;;1.77;1.67;;;;;;;15.33;100.00;97119.84;4998431;28;20203;-70
2022/09/11 08:31:14;;;;;;;1.80;1.30;;;;;;;15.28;100.00;97119.66;5001978;28;20255;-69
2022/09/11 08:33:44;;;;;;;1.50;1.50;;;;;;;15.34;100.00;97118.84;4979690;28;20250;-71
2022/09/11 08:36:14;;;;;;;1.73;1.73;;;;;;;15.36;100.00;97121.28;4980711;28;20204;-68
2022/09/11 08:38:43;;;;;;;1.33;1.27;;;;;;;15.29;100.00;97131.19;5011381;28;20615;-71
2022/09/11 08:41:17;;;;;;;2.10;1.67;;;;;;;15.32;100.00;97128.06;4972437;28;20208;-70
2022/09/11 08:43:49;;;;;;;1.47;1.37;;;;;;;15.33;100.00;97130.50;4998302;28;20224;-71
2022/09/11 08:46:19;;;;;;;2.30;1.73;;;;;;;15.47;100.00;97131.25;5014653;28;20201;-69
2022/09/11 08:48:52;;;;;;;2.13;1.90;;;;;;;15.79;100.00;97143.75;4978804;28;20780;-71
2022/09/11 08:51:22;;;;;;;1.43;1.43;;;;;;;15.60;100.00;97138.34;4997680;28;20208;-72
2022/09/11 08:53:50;;;;;;;1.67;1.57;;;;;;;15.73;100.00;97140.09;5012178;28;20855;-69
2022/09/11 08:56:21;;;;;;;1.27;1.27;;;;;;;15.73;100.00;97139.28;4971563;28;20652;-68
2022/09/11 08:59:04;;;;;;;1.10;1.10;;;;;;;15.68;100.00;97145.28;4977280;28;20207;-70
2022/09/11 09:01:36;;;;;;;1.27;1.27;;;;;;;15.47;100.00;97144.59;5010175;28;20231;-70
2022/09/11 09:04:19;;;;;;;1.30;1.30;;;;;;;15.59;100.00;97141.25;4971482;28;20228;-66
2022/09/11 09:06:57;;;;;;;1.60;1.60;;;;;;;15.60;100.00;97150.91;4994291;28;20876;-70
2022/09/11 09:09:31;;;;;;;1.40;1.40;;;;;;;15.93;100.00;97144.50;4988396;28;20211;-70
2022/09/11 09:12:08;;;;;;;1.27;1.20;;;;;;;15.98;100.00;97133.97;5009774;28;20260;-68
2022/09/11 09:14:51;;;;;;;2.40;2.30;;;;;;;15.94;100.00;97139.94;4984066;28;20611;-71
2022/09/11 09:17:22;;;;;;;1.87;1.77;;;;;;;16.20;100.00;97154.91;5010393;28;20220;-69
2022/09/11 09:19:52;;;;;;;1.20;1.20;;;;;;;16.38;100.00;97156.78;4942746;28;20231;-68
2022/09/11 09:22:25;;;;;;;1.73;1.30;;;;;;;16.46;100.00;97151.13;5005864;28;20239;-69
2022/09/11 09:24:58;;;;;;;1.43;1.43;;;;;;;16.39;100.00;97157.63;5009828;28;20239;-67
2022/09/11 09:27:30;;;;;;;1.30;1.20;;;;;;;16.66;100.00;97159.97;4991873;28;20615;-67
2022/09/11 09:29:59;;;;;;;1.30;1.30;;;;;;;16.68;100.00;97155.25;4990840;28;20244;-68
2022/09/11 09:32:31;;;;;;;1.10;1.10;;;;;;;16.78;100.00;97161.69;4993253;28;20764;-70
2022/09/11 09:35:01;;;;;;;1.50;1.50;;;;;;;16.78;100.00;97153.66;5007735;28;20208;-70
2022/09/11 09:37:31;;;;;;;2.20;1.40;;;;;;;16.66;100.00;97158.13;4944858;28;20224;-69
2022/09/11 09:39:59;;;;;;;1.67;1.57;;;;;;;16.77;100.00;97160.06;5005232;28;20746;-68
2022/09/11 09:42:43;;;;;;;1.70;1.70;;;;;;;16.60;100.00;97159.03;5008835;28;20777;-69
2022/09/11 09:45:33;;;;;;;1.70;1.60;;;;;;;16.52;100.00;97165.50;4999904;28;20224;-70
2022/09/11 09:48:02;;;;;;;1.93;1.40;;;;;;;16.87;100.00;97162.19;5008291;28;20307;-69
2022/09/11 09:50:32;;;;;;;1.20;1.20;;;;;;;16.83;100.00;97161.03;5006725;28;20698;-68
2022/09/11 09:53:09;;;;;;;1.20;1.20;;;;;;;16.34;100.00;97132.38;4965712;28;20507;-71
2022/09/11 09:55:39;;;;;;;1.67;1.53;;;;;;;16.52;100.00;97168.16;5009251;28;20830;-71
2022/09/11 09:58:07;;;;;;;1.47;1.40;;;;;;;16.76;100.00;97176.34;5012224;28;20303;-69
2022/09/11 10:00:36;;;;;;;1.10;1.10;;;;;;;16.97;100.00;97172.38;4990254;28;20258;-68
2022/09/11 10:03:19;;;;;;;1.23;1.10;;;;;;;17.04;100.00;97175.81;5012027;28;20220;-68
2022/09/11 10:05:48;;;;;;;1.50;1.40;;;;;;;17.12;100.00;97174.69;5009984;28;20734;-67
2022/09/11 10:08:32;;;;;;;1.33;1.33;;;;;;;17.27;100.00;97168.09;4965678;28;20693;-69
2022/09/11 10:11:02;;;;;;;1.53;1.30;;;;;;;17.45;100.00;97168.06;4951128;28;20418;-70
2022/09/11 10:13:32;;;;;;;1.27;1.17;;;;;;;17.31;100.00;97177.31;5011255;28;20227;-70
2022/09/11 10:16:03;;;;;;;1.27;1.27;;;;;;;17.10;100.00;97173.28;5008977;28;20751;-70
2022/09/11 10:18:38;;;;;;;1.33;1.33;;;;;;;17.17;100.00;97174.00;5010722;28;20260;-70
2022/09/11 10:21:22;;;;;;;1.10;1.10;;;;;;;17.21;100.00;97177.84;5013423;28;20911;-68
2022/09/11 10:23:54;;;;;;;1.10;1.10;;;;;;;17.26;100.00;97167.31;5009697;28;20424;-68
2022/09/11 10:26:29;;;;;;;1.20;1.20;;;;;;;17.45;100.00;97175.25;4960921;28;20333;-70
2022/09/11 10:29:08;;;;;;;1.23;1.23;;;;;;;17.41;100.00;97176.78;4991342;28;20697;-69
2022/09/11 10:31:40;;;;;;;1.37;1.27;;;;;;;17.33;100.00;97175.22;5012035;28;20235;-70
2022/09/11 10:34:14;;;;;;;2.70;1.10;;;;;;;17.36;100.00;97175.59;4992410;28;20251;-71
2022/09/11 10:36:52;;;;;;;1.57;1.47;;;;;;;17.40;100.00;97183.16;5006340;28;20235;-70
2022/09/11 10:39:24;;;;;;;1.67;1.60;;;;;;;17.42;100.00;97176.53;5011601;28;20298;-71
2022/09/11 10:41:55;;;;;;;1.63;1.20;;;;;;;17.26;100.00;97185.22;4957367;28;20433;-68
2022/09/11 10:44:24;;;;;;;1.13;1.13;;;;;;;17.47;100.00;97186.56;5012925;28;20232;-71
2022/09/11 10:47:05;;;;;;;1.33;1.33;;;;;;;17.54;100.00;97192.63;5005107;28;20329;-69
2022/09/11 10:49:33;;;;;;;2.83;1.33;;;;;;;17.37;100.00;97181.75;4992315;28;20740;-68
2022/09/11 10:52:04;;;;;;;1.57;1.57;;;;;;;17.33;100.00;97180.56;5009560;28;20854;-69
2022/09/11 10:54:44;;;;;;;1.40;1.40;;;;;;;17.46;100.00;97184.94;5012599;28;20645;-69
2022/09/11 10:57:19;;;;;;;1.00;1.00;;;;;;;17.69;100.00;97189.53;4962824;28;20210;-69
2022/09/11 10:59:58;;;;;;;1.30;1.30;;;;;;;17.47;100.00;97189.25;5008048;28;20857;-69
2022/09/11 11:02:30;;;;;;;1.10;1.10;;;;;;;17.52;100.00;97188.56;5010048;28;20224;-70
2022/09/11 11:05:01;;;;;;;1.40;1.30;;;;;;;17.64;100.00;97184.88;4991705;28;20457;-70
2022/09/11 11:07:47;;;;;;;1.67;1.20;;;;;;;17.57;100.00;97191.38;5009029;28;20306;-72
2022/09/11 11:10:25;;;;;;;1.10;1.10;;;;;;;17.69;100.00;97191.41;5009912;28;20208;-69
2022/09/11 11:13:06;;;;;;;1.27;1.13;;;;;;;17.81;100.00;97191.44;4952773;28;20227;-68
2022/09/11 11:15:52;;;;;;;1.37;1.27;;;;;;;17.86;100.00;97195.03;5010932;28;20246;-69
2022/09/11 11:18:35;;;;;;;1.70;1.60;;;;;;;18.00;100.00;97197.53;5010402;28;20200;-68
2022/09/11 11:21:12;;;;;;;1.40;1.40;;;;;;;17.99;100.00;97188.66;4998433;28;20466;-70
2022/09/11 11:23:59;;;;;;;1.60;1.60;;;;;;;17.88;100.00;97202.88;5005662;28;20643;-70
2022/09/11 11:26:39;;;;;;;1.77;1.67;;;;;;;17.69;100.00;97210.16;4950228;28;20228;-70
2022/09/11 11:29:32;;;;;;;1.80;1.60;;;;;;;18.37;100.00;97211.56;5006918;28;20872;-69
2022/09/11 11:32:16;;;;;;;1.70;1.60;;;;;;;18.30;100.00;97207.34;5007740;28;20797;-69
2022/09/11 11:35:04;;;;;;;1.87;1.77;;;;;;;18.20;100.00;97211.44;4994855;28;20212;-69
2022/09/11 11:37:34;;;;;;;1.70;1.60;;;;;;;18.01;100.00;97215.28;5008592;28;20208;-69
2022/09/11 11:40:06;;;;;;;1.20;1.20;;;;;;;18.21;100.00;97214.94;5008808;28;20273;-66
2022/09/11 11:42:38;;;;;;;2.50;1.90;;;;;;;18.12;100.00;97208.25;4965693;28;20224;-68
2022/09/11 11:45:10;;;;;;;1.67;1.57;;;;;;;18.15;100.00;97213.16;5006803;28;20368;-68